sensor_id;sensor_type;location;lat;lon;timestamp;pressure;altitude;pressure_sealevel;temperature;humidity
46846;BME280;33947;46.804;134.252;2023-08-30T00:02:10;100509.38;;;15.54;99.24
46846;BME280;33947;46.804;134.252;2023-08-30T00:05:14;100503.53;;;15.46;100.00
46846;BME280;33947;46.804;134.252;2023-08-30T00:08:22;100497.88;;;15.52;99.80
46846;BME280;33947;46.804;134.252;2023-08-30T00:11:26;100494.59;;;15.65;98.97
46846;BME280;33947;46.804;134.252;2023-08-30T00:14:30;100482.59;;;15.54;99.78
46846;BME280;33947;46.804;134.252;2023-08-30T00:17:36;100487.34;;;15.67;99.46
46846;BME280;33947;46.804;134.252;2023-08-30T00:20:40;100475.63;;;15.69;99.12
46846;BME280;33947;46.804;134.252;2023-08-30T00:23:45;100479.94;;;15.72;99.86
46846;BME280;33947;46.804;134.252;2023-08-30T00:26:49;100466.28;;;15.78;99.25
46846;BME280;33947;46.804;134.252;2023-08-30T00:29:54;100474.38;;;15.76;99.58
46846;BME280;33947;46.804;134.252;2023-08-30T00:32:58;100475.63;;;15.88;99.19
46846;BME280;33947;46.804;134.252;2023-08-30T00:36:04;100474.03;;;16.02;99.48
46846;BME280;33947;46.804;134.252;2023-08-30T00:39:08;100476.25;;;16.11;98.84
46846;BME280;33947;46.804;134.252;2023-08-30T00:42:12;100470.44;;;16.20;97.97
46846;BME280;33947;46.804;134.252;2023-08-30T00:45:16;100454.97;;;16.26;97.59
46846;BME280;33947;46.804;134.252;2023-08-30T00:48:21;100463.84;;;16.26;97.93
46846;BME280;33947;46.804;134.252;2023-08-30T00:51:26;100462.84;;;16.29;97.47
46846;BME280;33947;46.804;134.252;2023-08-30T00:54:30;100459.66;;;16.38;96.28
46846;BME280;33947;46.804;134.252;2023-08-30T00:57:38;100465.81;;;16.58;95.46
46846;BME280;33947;46.804;134.252;2023-08-30T01:00:42;100463.69;;;16.47;96.47
46846;BME280;33947;46.804;134.252;2023-08-30T01:03:47;100445.38;;;16.55;96.40
46846;BME280;33947;46.804;134.252;2023-08-30T01:06:51;100449.28;;;16.66;95.86
46846;BME280;33947;46.804;134.252;2023-08-30T01:09:57;100438.72;;;16.62;96.18
46846;BME280;33947;46.804;134.252;2023-08-30T01:13:10;100443.00;;;16.83;96.51
46846;BME280;33947;46.804;134.252;2023-08-30T01:16:17;100428.44;;;17.04;94.50
46846;BME280;33947;46.804;134.252;2023-08-30T01:23:05;100431.66;;;17.27;93.23
46846;BME280;33947;46.804;134.252;2023-08-30T01:26:13;100420.66;;;18.09;91.80
46846;BME280;33947;46.804;134.252;2023-08-30T01:29:20;100436.56;;;18.72;87.65
46846;BME280;33947;46.804;134.252;2023-08-30T01:32:25;100426.19;;;18.51;87.71
46846;BME280;33947;46.804;134.252;2023-08-30T01:35:36;100355.81;;;17.99;87.88
46846;BME280;33947;46.804;134.252;2023-08-30T01:40:00;100348.78;;;17.97;86.55
46846;BME280;33947;46.804;134.252;2023-08-30T01:44:52;100300.03;;;17.88;84.40
46846;BME280;33947;46.804;134.252;2023-08-30T01:53:47;100324.47;;;18.14;83.53
46846;BME280;33947;46.804;134.252;2023-08-30T01:57:51;100321.50;;;18.04;84.94
46846;BME280;33947;46.804;134.252;2023-08-30T02:02:01;100355.13;;;17.96;85.01
46846;BME280;33947;46.804;134.252;2023-08-30T02:14:59;100376.22;;;18.47;83.76
46846;BME280;33947;46.804;134.252;2023-08-30T02:19:32;100384.47;;;18.15;85.03
46846;BME280;33947;46.804;134.252;2023-08-30T02:41:10;100343.88;;;18.05;85.11
46846;BME280;33947;46.804;134.252;2023-08-30T02:45:40;100320.19;;;17.96;85.06
46846;BME280;33947;46.804;134.252;2023-08-30T02:49:44;100345.59;;;18.20;84.41
46846;BME280;33947;46.804;134.252;2023-08-30T02:52:56;100405.91;;;18.60;84.88
46846;BME280;33947;46.804;134.252;2023-08-30T03:01:10;100311.13;;;18.27;83.65
46846;BME280;33947;46.804;134.252;2023-08-30T03:14:28;100325.44;;;18.42;84.42
46846;BME280;33947;46.804;134.252;2023-08-30T03:18:25;100323.13;;;18.50;84.29
46846;BME280;33947;46.804;134.252;2023-08-30T03:22:26;100402.50;;;19.14;83.45
46846;BME280;33947;46.804;134.252;2023-08-30T03:26:33;100290.34;;;18.44;84.39
46846;BME280;33947;46.804;134.252;2023-08-30T03:30:24;100393.00;;;18.94;85.10
46846;BME280;33947;46.804;134.252;2023-08-30T03:34:15;100273.38;;;18.29;84.83
46846;BME280;33947;46.804;134.252;2023-08-30T03:38:24;100320.13;;;18.41;85.12
46846;BME280;33947;46.804;134.252;2023-08-30T03:42:37;100398.38;;;19.08;84.69
46846;BME280;33947;46.804;134.252;2023-08-30T03:46:41;100394.66;;;18.82;86.25
46846;BME280;33947;46.804;134.252;2023-08-30T04:00:08;100275.78;;;18.33;84.76
46846;BME280;33947;46.804;134.252;2023-08-30T04:04:02;100245.44;;;18.17;84.56
46846;BME280;33947;46.804;134.252;2023-08-30T04:08:09;100396.00;;;19.04;85.48
46846;BME280;33947;46.804;134.252;2023-08-30T04:11:55;100400.69;;;19.15;86.13
46846;BME280;33947;46.804;134.252;2023-08-30T04:15:54;100310.50;;;18.51;86.52
46846;BME280;33947;46.804;134.252;2023-08-30T04:19:36;100251.59;;;18.33;86.04
46846;BME280;33947;46.804;134.252;2023-08-30T04:24:07;100305.88;;;18.68;85.58
46846;BME280;33947;46.804;134.252;2023-08-30T04:28:01;100280.78;;;18.67;86.39
46846;BME280;33947;46.804;134.252;2023-08-30T04:37:29;100245.38;;;18.60;85.21
46846;BME280;33947;46.804;134.252;2023-08-30T04:46:00;100289.00;;;18.93;84.75
46846;BME280;33947;46.804;134.252;2023-08-30T04:49:59;100289.75;;;18.95;85.22
46846;BME280;33947;46.804;134.252;2023-08-30T04:54:00;100362.78;;;19.45;84.80
46846;BME280;33947;46.804;134.252;2023-08-30T04:57:19;100327.16;;;19.27;85.33
46846;BME280;33947;46.804;134.252;2023-08-30T05:00:38;100358.91;;;19.49;85.24
46846;BME280;33947;46.804;134.252;2023-08-30T05:03:43;100352.84;;;19.46;84.96
46846;BME280;33947;46.804;134.252;2023-08-30T05:06:49;100351.88;;;19.47;85.10
46846;BME280;33947;46.804;134.252;2023-08-30T05:09:54;100340.75;;;19.38;85.26
46846;BME280;33947;46.804;134.252;2023-08-30T05:12:58;100344.53;;;19.36;85.60
46846;BME280;33947;46.804;134.252;2023-08-30T05:16:10;100353.06;;;19.43;86.33
46846;BME280;33947;46.804;134.252;2023-08-30T05:19:17;100357.31;;;19.60;86.19
46846;BME280;33947;46.804;134.252;2023-08-30T05:22:24;100349.66;;;19.66;85.31
46846;BME280;33947;46.804;134.252;2023-08-30T05:25:28;100346.44;;;19.61;85.14
46846;BME280;33947;46.804;134.252;2023-08-30T05:28:32;100349.53;;;19.68;85.40
46846;BME280;33947;46.804;134.252;2023-08-30T05:31:37;100357.75;;;19.66;85.75
46846;BME280;33947;46.804;134.252;2023-08-30T05:34:59;100357.63;;;19.68;85.82
46846;BME280;33947;46.804;134.252;2023-08-30T05:38:24;100350.00;;;19.75;85.72
46846;BME280;33947;46.804;134.252;2023-08-30T05:41:44;100350.22;;;19.72;85.90
46846;BME280;33947;46.804;134.252;2023-08-30T05:44:49;100354.09;;;19.67;86.00
46846;BME280;33947;46.804;134.252;2023-08-30T05:47:53;100342.84;;;19.61;86.56
46846;BME280;33947;46.804;134.252;2023-08-30T05:50:58;100333.16;;;19.58;86.55
46846;BME280;33947;46.804;134.252;2023-08-30T05:54:06;100331.44;;;19.57;86.58
46846;BME280;33947;46.804;134.252;2023-08-30T05:57:11;100317.28;;;19.41;86.73
46846;BME280;33947;46.804;134.252;2023-08-30T06:00:15;100336.56;;;19.34;87.07
46846;BME280;33947;46.804;134.252;2023-08-30T06:03:20;100355.66;;;19.44;87.35
46846;BME280;33947;46.804;134.252;2023-08-30T06:06:24;100339.25;;;19.34;87.53
46846;BME280;33947;46.804;134.252;2023-08-30T06:09:31;100347.91;;;19.52;86.24
46846;BME280;33947;46.804;134.252;2023-08-30T06:12:35;100359.31;;;19.43;87.14
46846;BME280;33947;46.804;134.252;2023-08-30T06:15:41;100363.19;;;19.39;87.68
46846;BME280;33947;46.804;134.252;2023-08-30T06:18:49;100360.78;;;19.34;88.21
46846;BME280;33947;46.804;134.252;2023-08-30T06:21:53;100362.22;;;19.40;88.42
46846;BME280;33947;46.804;134.252;2023-08-30T06:24:57;100358.09;;;19.34;88.50
46846;BME280;33947;46.804;134.252;2023-08-30T06:28:02;100369.34;;;19.41;88.78
46846;BME280;33947;46.804;134.252;2023-08-30T06:31:11;100373.63;;;19.44;88.63
46846;BME280;33947;46.804;134.252;2023-08-30T06:34:17;100366.44;;;19.44;88.97
46846;BME280;33947;46.804;134.252;2023-08-30T06:37:24;100345.94;;;19.42;88.89
46846;BME280;33947;46.804;134.252;2023-08-30T06:40:29;100354.06;;;19.55;88.95
46846;BME280;33947;46.804;134.252;2023-08-30T06:43:37;100366.81;;;19.65;89.12
46846;BME280;33947;46.804;134.252;2023-08-30T06:46:42;100358.59;;;19.54;88.91
46846;BME280;33947;46.804;134.252;2023-08-30T06:49:46;100370.25;;;19.67;89.59
46846;BME280;33947;46.804;134.252;2023-08-30T06:52:50;100362.50;;;19.76;88.89
46846;BME280;33947;46.804;134.252;2023-08-30T06:56:01;100371.34;;;19.78;89.00
46846;BME280;33947;46.804;134.252;2023-08-30T06:59:06;100380.31;;;19.78;89.60
46846;BME280;33947;46.804;134.252;2023-08-30T07:02:10;100386.47;;;19.80;89.37
46846;BME280;33947;46.804;134.252;2023-08-30T07:05:14;100395.06;;;19.73;89.78
46846;BME280;33947;46.804;134.252;2023-08-30T07:08:19;100399.69;;;19.71;89.85
46846;BME280;33947;46.804;134.252;2023-08-30T07:11:24;100400.88;;;19.66;90.39
46846;BME280;33947;46.804;134.252;2023-08-30T07:14:37;100385.13;;;19.60;90.60
46846;BME280;33947;46.804;134.252;2023-08-30T07:17:45;100395.56;;;19.65;90.21
46846;BME280;33947;46.804;134.252;2023-08-30T07:20:56;100368.69;;;19.50;90.47
46846;BME280;33947;46.804;134.252;2023-08-30T07:24:00;100374.97;;;19.64;90.57
46846;BME280;33947;46.804;134.252;2023-08-30T07:27:05;100378.63;;;19.63;90.67
46846;BME280;33947;46.804;134.252;2023-08-30T07:30:09;100375.84;;;19.64;90.49
46846;BME280;33947;46.804;134.252;2023-08-30T07:33:14;100369.63;;;19.77;90.35
46846;BME280;33947;46.804;134.252;2023-08-30T07:36:18;100371.13;;;19.81;90.70
46846;BME280;33947;46.804;134.252;2023-08-30T07:39:32;100377.41;;;19.81;91.21
46846;BME280;33947;46.804;134.252;2023-08-30T07:42:36;100370.50;;;19.77;91.62
46846;BME280;33947;46.804;134.252;2023-08-30T07:45:39;100371.78;;;19.72;91.38
46846;BME280;33947;46.804;134.252;2023-08-30T07:48:44;100377.28;;;19.70;91.39
46846;BME280;33947;46.804;134.252;2023-08-30T07:52:17;100279.00;;;18.95;92.15
46846;BME280;33947;46.804;134.252;2023-08-30T07:56:07;100271.63;;;18.99;91.81
46846;BME280;33947;46.804;134.252;2023-08-30T07:59:58;100394.81;;;19.63;91.39
46846;BME280;33947;46.804;134.252;2023-08-30T08:03:55;100262.56;;;18.85;91.61
46846;BME280;33947;46.804;134.252;2023-08-30T08:07:45;100298.56;;;19.12;91.50
46846;BME280;33947;46.804;134.252;2023-08-30T08:11:46;100248.72;;;18.91;91.38
46846;BME280;33947;46.804;134.252;2023-08-30T08:15:56;100223.66;;;18.63;91.63
46846;BME280;33947;46.804;134.252;2023-08-30T08:19:58;100273.91;;;18.90;91.97
46846;BME280;33947;46.804;134.252;2023-08-30T08:23:42;100319.50;;;19.21;91.61
46846;BME280;33947;46.804;134.252;2023-08-30T08:27:34;100319.72;;;19.18;91.86
46846;BME280;33947;46.804;134.252;2023-08-30T08:31:58;100278.16;;;18.80;92.29
46846;BME280;33947;46.804;134.252;2023-08-30T08:36:04;100295.44;;;18.90;92.24
46846;BME280;33947;46.804;134.252;2023-08-30T08:40:06;100307.16;;;18.89;92.63
46846;BME280;33947;46.804;134.252;2023-08-30T08:44:05;100270.59;;;18.72;92.92
46846;BME280;33947;46.804;134.252;2023-08-30T08:47:38;100304.44;;;18.76;92.53
46846;BME280;33947;46.804;134.252;2023-08-30T08:51:22;100313.28;;;18.78;92.71
46846;BME280;33947;46.804;134.252;2023-08-30T08:55:28;100358.75;;;19.11;93.39
46846;BME280;33947;46.804;134.252;2023-08-30T08:58:56;100393.31;;;19.31;93.96
46846;BME280;33947;46.804;134.252;2023-08-30T09:02:02;100398.91;;;19.28;94.28
46846;BME280;33947;46.804;134.252;2023-08-30T09:05:07;100408.25;;;19.22;94.74
46846;BME280;33947;46.804;134.252;2023-08-30T09:08:15;100410.94;;;19.22;94.80
46846;BME280;33947;46.804;134.252;2023-08-30T09:11:23;100395.19;;;19.16;95.00
46846;BME280;33947;46.804;134.252;2023-08-30T09:14:55;100396.16;;;19.15;95.12
46846;BME280;33947;46.804;134.252;2023-08-30T09:18:15;100410.66;;;19.13;95.43
46846;BME280;33947;46.804;134.252;2023-08-30T09:21:19;100404.34;;;18.99;97.71
46846;BME280;33947;46.804;134.252;2023-08-30T09:24:24;100413.56;;;18.95;98.28
46846;BME280;33947;46.804;134.252;2023-08-30T09:27:38;100389.06;;;18.85;98.29
46846;BME280;33947;46.804;134.252;2023-08-30T09:30:52;100399.09;;;18.98;97.70
46846;BME280;33947;46.804;134.252;2023-08-30T09:33:58;100408.91;;;18.99;96.98
46846;BME280;33947;46.804;134.252;2023-08-30T09:37:03;100417.72;;;19.01;96.85
46846;BME280;33947;46.804;134.252;2023-08-30T09:40:09;100424.72;;;19.03;96.56
46846;BME280;33947;46.804;134.252;2023-08-30T09:43:18;100426.53;;;18.88;98.48
46846;BME280;33947;46.804;134.252;2023-08-30T09:46:26;100433.69;;;18.75;99.50
46846;BME280;33947;46.804;134.252;2023-08-30T09:49:51;100429.84;;;18.64;100.00
46846;BME280;33947;46.804;134.252;2023-08-30T09:52:58;100437.03;;;18.64;100.00
46846;BME280;33947;46.804;134.252;2023-08-30T09:56:06;100443.88;;;18.70;100.00
46846;BME280;33947;46.804;134.252;2023-08-30T09:59:14;100445.31;;;18.61;100.00
46846;BME280;33947;46.804;134.252;2023-08-30T10:02:20;100424.38;;;18.51;100.00
46846;BME280;33947;46.804;134.252;2023-08-30T10:05:25;100448.88;;;18.61;100.00
46846;BME280;33947;46.804;134.252;2023-08-30T10:08:29;100440.88;;;18.45;100.00
46846;BME280;33947;46.804;134.252;2023-08-30T10:11:36;100434.47;;;18.62;100.00
46846;BME280;33947;46.804;134.252;2023-08-30T10:14:40;100431.47;;;18.67;100.00
46846;BME280;33947;46.804;134.252;2023-08-30T10:17:46;100437.81;;;18.66;100.00
46846;BME280;33947;46.804;134.252;2023-08-30T10:20:54;100443.38;;;18.63;100.00
46846;BME280;33947;46.804;134.252;2023-08-30T10:23:59;100445.31;;;18.61;100.00
46846;BME280;33947;46.804;134.252;2023-08-30T10:27:19;100438.78;;;18.50;100.00
46846;BME280;33947;46.804;134.252;2023-08-30T10:30:25;100448.66;;;18.50;100.00
46846;BME280;33947;46.804;134.252;2023-08-30T10:33:30;100463.84;;;18.51;100.00
46846;BME280;33947;46.804;134.252;2023-08-30T10:36:34;100454.22;;;18.47;100.00
46846;BME280;33947;46.804;134.252;2023-08-30T10:39:40;100461.16;;;18.51;100.00
46846;BME280;33947;46.804;134.252;2023-08-30T10:42:45;100465.03;;;18.61;100.00
46846;BME280;33947;46.804;134.252;2023-08-30T10:46:01;100462.22;;;18.63;99.05
46846;BME280;33947;46.804;134.252;2023-08-30T10:49:11;100460.28;;;18.65;98.94
46846;BME280;33947;46.804;134.252;2023-08-30T10:52:20;100448.97;;;18.60;98.95
46846;BME280;33947;46.804;134.252;2023-08-30T10:55:25;100456.94;;;18.61;99.68
46846;BME280;33947;46.804;134.252;2023-08-30T10:58:45;100461.63;;;18.58;99.25
46846;BME280;33947;46.804;134.252;2023-08-30T11:01:55;100315.94;;;17.62;100.00
46846;BME280;33947;46.804;134.252;2023-08-30T11:05:29;100436.06;;;18.36;100.00
46846;BME280;33947;46.804;134.252;2023-08-30T11:08:35;100473.44;;;18.55;99.98
46846;BME280;33947;46.804;134.252;2023-08-30T11:11:39;100452.13;;;18.52;99.48
46846;BME280;33947;46.804;134.252;2023-08-30T11:15:31;100453.56;;;18.43;99.59
46846;BME280;33947;46.804;134.252;2023-08-30T11:18:38;100455.19;;;18.31;99.88
46846;BME280;33947;46.804;134.252;2023-08-30T11:21:46;100454.88;;;18.21;100.00
46846;BME280;33947;46.804;134.252;2023-08-30T11:24:54;100475.72;;;18.32;100.00
46846;BME280;33947;46.804;134.252;2023-08-30T11:28:04;100474.97;;;18.30;100.00
46846;BME280;33947;46.804;134.252;2023-08-30T11:31:18;100471.50;;;18.28;100.00
46846;BME280;33947;46.804;134.252;2023-08-30T11:34:24;100453.13;;;18.06;100.00
46846;BME280;33947;46.804;134.252;2023-08-30T11:37:31;100473.22;;;18.29;100.00
46846;BME280;33947;46.804;134.252;2023-08-30T11:40:36;100413.47;;;17.93;100.00
46846;BME280;33947;46.804;134.252;2023-08-30T11:43:44;100465.81;;;18.33;100.00
46846;BME280;33947;46.804;134.252;2023-08-30T11:46:59;100457.50;;;18.37;100.00
46846;BME280;33947;46.804;134.252;2023-08-30T11:50:04;100439.13;;;18.30;100.00
46846;BME280;33947;46.804;134.252;2023-08-30T11:53:10;100416.66;;;18.16;100.00
46846;BME280;33947;46.804;134.252;2023-08-30T11:56:15;100432.97;;;18.28;100.00
46846;BME280;33947;46.804;134.252;2023-08-30T11:59:21;100431.63;;;18.20;99.77
46846;BME280;33947;46.804;134.252;2023-08-30T12:02:28;100458.19;;;18.41;99.80
46846;BME280;33947;46.804;134.252;2023-08-30T12:05:33;100462.59;;;18.42;99.56
46846;BME280;33947;46.804;134.252;2023-08-30T12:08:39;100437.13;;;18.33;99.54
46846;BME280;33947;46.804;134.252;2023-08-30T12:11:43;100452.03;;;18.39;99.75
46846;BME280;33947;46.804;134.252;2023-08-30T12:14:54;100449.59;;;18.34;99.38
46846;BME280;33947;46.804;134.252;2023-08-30T12:18:06;100469.13;;;18.38;99.43
46846;BME280;33947;46.804;134.252;2023-08-30T12:21:13;100470.06;;;18.37;99.84
46846;BME280;33947;46.804;134.252;2023-08-30T12:24:19;100470.25;;;18.34;99.97
46846;BME280;33947;46.804;134.252;2023-08-30T12:27:26;100461.59;;;18.29;99.91
46846;BME280;33947;46.804;134.252;2023-08-30T12:30:33;100455.38;;;18.28;99.80
46846;BME280;33947;46.804;134.252;2023-08-30T12:33:39;100436.31;;;18.17;99.90
46846;BME280;33947;46.804;134.252;2023-08-30T12:36:46;100450.56;;;18.19;99.78
46846;BME280;33947;46.804;134.252;2023-08-30T12:39:53;100461.78;;;18.26;100.00
46846;BME280;33947;46.804;134.252;2023-08-30T12:43:00;100465.81;;;18.18;100.00
46846;BME280;33947;46.804;134.252;2023-08-30T12:46:05;100430.66;;;17.91;100.00
46846;BME280;33947;46.804;134.252;2023-08-30T12:49:13;100442.28;;;17.91;100.00
46846;BME280;33947;46.804;134.252;2023-08-30T12:52:20;100485.06;;;18.11;100.00
46846;BME280;33947;46.804;134.252;2023-08-30T12:55:27;100477.72;;;18.14;100.00
46846;BME280;33947;46.804;134.252;2023-08-30T12:58:31;100485.50;;;18.19;100.00
46846;BME280;33947;46.804;134.252;2023-08-30T13:01:35;100482.91;;;18.17;100.00
46846;BME280;33947;46.804;134.252;2023-08-30T13:04:43;100478.47;;;18.16;100.00
46846;BME280;33947;46.804;134.252;2023-08-30T13:07:48;100487.69;;;18.12;100.00
46846;BME280;33947;46.804;134.252;2023-08-30T13:10:52;100480.47;;;17.97;100.00
46846;BME280;33947;46.804;134.252;2023-08-30T13:13:56;100468.78;;;17.98;100.00
46846;BME280;33947;46.804;134.252;2023-08-30T13:17:04;100477.50;;;18.03;100.00
46846;BME280;33947;46.804;134.252;2023-08-30T13:20:10;100489.31;;;17.99;100.00
46846;BME280;33947;46.804;134.252;2023-08-30T13:23:14;100476.97;;;17.80;100.00
46846;BME280;33947;46.804;134.252;2023-08-30T13:26:18;100452.88;;;17.78;100.00
46846;BME280;33947;46.804;134.252;2023-08-30T13:29:24;100475.59;;;17.89;100.00
46846;BME280;33947;46.804;134.252;2023-08-30T13:32:28;100483.72;;;17.87;100.00
46846;BME280;33947;46.804;134.252;2023-08-30T13:35:35;100458.63;;;17.72;100.00
46846;BME280;33947;46.804;134.252;2023-08-30T13:38:39;100485.13;;;17.78;100.00
46846;BME280;33947;46.804;134.252;2023-08-30T13:41:51;100467.38;;;17.76;100.00
46846;BME280;33947;46.804;134.252;2023-08-30T13:44:56;100443.81;;;17.65;100.00
46846;BME280;33947;46.804;134.252;2023-08-30T13:48:09;100475.22;;;17.95;100.00
46846;BME280;33947;46.804;134.252;2023-08-30T13:51:21;100469.13;;;17.91;100.00
46846;BME280;33947;46.804;134.252;2023-08-30T13:54:26;100476.34;;;17.91;100.00
46846;BME280;33947;46.804;134.252;2023-08-30T13:57:32;100472.72;;;17.92;100.00
46846;BME280;33947;46.804;134.252;2023-08-30T14:00:37;100459.97;;;17.79;100.00
46846;BME280;33947;46.804;134.252;2023-08-30T14:03:41;100474.88;;;17.85;100.00
46846;BME280;33947;46.804;134.252;2023-08-30T14:06:45;100431.66;;;17.74;100.00
46846;BME280;33947;46.804;134.252;2023-08-30T14:09:50;100414.81;;;17.56;100.00
46846;BME280;33947;46.804;134.252;2023-08-30T14:13:24;100419.91;;;17.60;100.00
46846;BME280;33947;46.804;134.252;2023-08-30T14:17:20;100390.06;;;17.34;100.00
46846;BME280;33947;46.804;134.252;2023-08-30T14:20:48;100476.06;;;17.96;100.00
46846;BME280;33947;46.804;134.252;2023-08-30T14:23:52;100474.63;;;18.06;99.50
46846;BME280;33947;46.804;134.252;2023-08-30T14:26:57;100461.97;;;17.92;100.00
46846;BME280;33947;46.804;134.252;2023-08-30T14:30:02;100456.47;;;17.93;99.82
46846;BME280;33947;46.804;134.252;2023-08-30T14:33:07;100434.75;;;17.82;100.00
46846;BME280;33947;46.804;134.252;2023-08-30T14:36:12;100456.19;;;17.84;100.00
46846;BME280;33947;46.804;134.252;2023-08-30T14:39:18;100443.28;;;17.74;100.00
46846;BME280;33947;46.804;134.252;2023-08-30T14:42:23;100462.00;;;17.76;100.00
46846;BME280;33947;46.804;134.252;2023-08-30T14:45:27;100459.38;;;17.74;100.00
46846;BME280;33947;46.804;134.252;2023-08-30T14:48:35;100477.16;;;17.77;100.00
46846;BME280;33947;46.804;134.252;2023-08-30T14:51:40;100488.75;;;17.77;100.00
46846;BME280;33947;46.804;134.252;2023-08-30T14:54:47;100479.16;;;17.73;100.00
46846;BME280;33947;46.804;134.252;2023-08-30T14:57:56;100480.81;;;17.76;100.00
46846;BME280;33947;46.804;134.252;2023-08-30T15:01:00;100474.38;;;17.78;100.00
46846;BME280;33947;46.804;134.252;2023-08-30T15:04:04;100480.81;;;17.76;100.00
46846;BME280;33947;46.804;134.252;2023-08-30T15:07:09;100465.56;;;17.60;100.00
46846;BME280;33947;46.804;134.252;2023-08-30T15:10:13;100477.00;;;17.64;100.00
46846;BME280;33947;46.804;134.252;2023-08-30T15:13:17;100481.16;;;17.70;100.00
46846;BME280;33947;46.804;134.252;2023-08-30T15:16:21;100465.72;;;17.57;100.00
46846;BME280;33947;46.804;134.252;2023-08-30T15:19:26;100485.16;;;17.62;100.00
46846;BME280;33947;46.804;134.252;2023-08-30T15:22:30;100477.09;;;17.62;100.00
46846;BME280;33947;46.804;134.252;2023-08-30T15:25:39;100459.09;;;17.64;100.00
46846;BME280;33947;46.804;134.252;2023-08-30T15:28:44;100447.56;;;17.62;100.00
46846;BME280;33947;46.804;134.252;2023-08-30T15:31:50;100448.78;;;17.57;100.00
46846;BME280;33947;46.804;134.252;2023-08-30T15:34:57;100451.81;;;17.50;100.00
46846;BME280;33947;46.804;134.252;2023-08-30T15:38:01;100462.28;;;17.55;100.00
46846;BME280;33947;46.804;134.252;2023-08-30T15:41:09;100471.03;;;17.43;100.00
46846;BME280;33947;46.804;134.252;2023-08-30T15:44:13;100471.94;;;17.27;100.00
46846;BME280;33947;46.804;134.252;2023-08-30T15:47:17;100463.34;;;17.20;100.00
46846;BME280;33947;46.804;134.252;2023-08-30T15:50:22;100441.78;;;17.06;100.00
46846;BME280;33947;46.804;134.252;2023-08-30T15:53:26;100461.44;;;17.06;100.00
46846;BME280;33947;46.804;134.252;2023-08-30T15:56:30;100440.66;;;17.10;100.00
46846;BME280;33947;46.804;134.252;2023-08-30T15:59:34;100452.00;;;17.15;100.00
46846;BME280;33947;46.804;134.252;2023-08-30T16:02:39;100461.06;;;17.13;100.00
46846;BME280;33947;46.804;134.252;2023-08-30T16:05:44;100453.81;;;17.15;100.00
46846;BME280;33947;46.804;134.252;2023-08-30T16:08:49;100431.91;;;17.06;100.00
46846;BME280;33947;46.804;134.252;2023-08-30T16:11:53;100439.44;;;17.16;100.00
46846;BME280;33947;46.804;134.252;2023-08-30T16:14:57;100450.34;;;17.13;100.00
46846;BME280;33947;46.804;134.252;2023-08-30T16:18:23;100426.59;;;16.89;100.00
46846;BME280;33947;46.804;134.252;2023-08-30T16:21:31;100435.25;;;16.94;100.00
46846;BME280;33947;46.804;134.252;2023-08-30T16:24:36;100452.41;;;17.07;100.00
46846;BME280;33947;46.804;134.252;2023-08-30T16:27:42;100439.13;;;16.88;100.00
46846;BME280;33947;46.804;134.252;2023-08-30T16:30:59;100463.31;;;17.04;100.00
46846;BME280;33947;46.804;134.252;2023-08-30T16:34:10;100446.69;;;16.98;100.00
46846;BME280;33947;46.804;134.252;2023-08-30T16:37:17;100443.06;;;16.99;100.00
46846;BME280;33947;46.804;134.252;2023-08-30T16:40:24;100423.91;;;16.89;100.00
46846;BME280;33947;46.804;134.252;2023-08-30T16:43:31;100429.34;;;16.87;100.00
46846;BME280;33947;46.804;134.252;2023-08-30T16:46:44;100431.78;;;16.92;100.00
46846;BME280;33947;46.804;134.252;2023-08-30T16:49:49;100446.84;;;16.95;100.00
46846;BME280;33947;46.804;134.252;2023-08-30T16:52:53;100444.25;;;16.93;100.00
46846;BME280;33947;46.804;134.252;2023-08-30T16:56:01;100439.53;;;16.81;100.00
46846;BME280;33947;46.804;134.252;2023-08-30T16:59:06;100427.69;;;16.69;100.00
46846;BME280;33947;46.804;134.252;2023-08-30T17:02:11;100458.44;;;16.95;100.00
46846;BME280;33947;46.804;134.252;2023-08-30T17:05:15;100466.34;;;16.98;100.00
46846;BME280;33947;46.804;134.252;2023-08-30T17:08:22;100436.69;;;16.84;100.00
46846;BME280;33947;46.804;134.252;2023-08-30T17:11:29;100438.94;;;16.91;100.00
46846;BME280;33947;46.804;134.252;2023-08-30T17:14:33;100463.31;;;17.04;100.00
46846;BME280;33947;46.804;134.252;2023-08-30T17:17:40;100463.03;;;16.93;100.00
46846;BME280;33947;46.804;134.252;2023-08-30T17:20:45;100427.78;;;16.83;100.00
46846;BME280;33947;46.804;134.252;2023-08-30T17:23:49;100432.56;;;16.94;100.00
46846;BME280;33947;46.804;134.252;2023-08-30T17:26:56;100435.97;;;16.98;100.00
46846;BME280;33947;46.804;134.252;2023-08-30T17:30:04;100426.31;;;16.93;100.00
46846;BME280;33947;46.804;134.252;2023-08-30T17:33:09;100416.94;;;17.02;100.00
46846;BME280;33947;46.804;134.252;2023-08-30T17:36:14;100421.41;;;17.02;100.00
46846;BME280;33947;46.804;134.252;2023-08-30T17:39:17;100417.72;;;17.04;100.00
46846;BME280;33947;46.804;134.252;2023-08-30T17:42:22;100408.69;;;17.05;100.00